Canford Heath, United Kingdom
Current Conditions -  °F | °C
As of 10:20 PM on Friday 24 Oct 2014 (Local Time) from EGHH Reporting Station
Light Fog Light Fog  
Wind Chill: 46°   Ceiling: Unl
Heat Index: 46°   Visibility: 0.93mi
Dew Point: 46°   Wind: 1mph
Humidity: 100%   Direction: 270°W
Pressure: 30"   Gusts: NA
Location:  50.75°N, 1.97°W
Report Text: EGHH 242120Z 27001KT 1500 MIFG NSC 08/08 Q1016
Loading
Personal Weather Stations






























Interactive Weather Map
Tropical Storm Tracking
New forecast layout! Learn more

10-Day Weather Forecast

Advertisements
Track Severe Weather on mobile